sensor_id;sensor_type;location;lat;lon;timestamp;temperature;humidity
14049;DHT22;7099;53.922;10.728;2022-12-10T00:03:53;0.30;99.90
14049;DHT22;7099;53.922;10.728;2022-12-10T00:07:58;0.40;99.90
14049;DHT22;7099;53.922;10.728;2022-12-10T00:12:03;0.40;99.90
14049;DHT22;7099;53.922;10.728;2022-12-10T00:16:10;0.40;99.90
14049;DHT22;7099;53.922;10.728;2022-12-10T00:20:16;0.50;99.90
14049;DHT22;7099;53.922;10.728;2022-12-10T00:24:21;0.50;99.90
14049;DHT22;7099;53.922;10.728;2022-12-10T00:28:26;0.50;99.90
14049;DHT22;7099;53.922;10.728;2022-12-10T00:32:31;0.50;99.90
14049;DHT22;7099;53.922;10.728;2022-12-10T00:36:47;0.50;99.90
14049;DHT22;7099;53.922;10.728;2022-12-10T00:40:53;0.60;99.90
14049;DHT22;7099;53.922;10.728;2022-12-10T00:44:58;0.50;99.90
14049;DHT22;7099;53.922;10.728;2022-12-10T00:49:03;0.60;99.90
14049;DHT22;7099;53.922;10.728;2022-12-10T00:53:08;0.50;99.90
14049;DHT22;7099;53.922;10.728;2022-12-10T00:57:13;0.50;99.90
14049;DHT22;7099;53.922;10.728;2022-12-10T01:05:29;0.60;99.90
14049;DHT22;7099;53.922;10.728;2022-12-10T01:09:34;0.60;99.90
14049;DHT22;7099;53.922;10.728;2022-12-10T01:13:39;0.60;99.90
14049;DHT22;7099;53.922;10.728;2022-12-10T01:17:44;0.60;99.90
14049;DHT22;7099;53.922;10.728;2022-12-10T01:21:53;0.70;99.90
14049;DHT22;7099;53.922;10.728;2022-12-10T01:26:07;0.70;99.90
14049;DHT22;7099;53.922;10.728;2022-12-10T01:30:17;0.70;99.90
14049;DHT22;7099;53.922;10.728;2022-12-10T01:34:22;0.70;99.90
14049;DHT22;7099;53.922;10.728;2022-12-10T01:38:27;0.70;99.90
14049;DHT22;7099;53.922;10.728;2022-12-10T01:42:33;0.70;99.90
14049;DHT22;7099;53.922;10.728;2022-12-10T01:46:40;0.70;99.90
14049;DHT22;7099;53.922;10.728;2022-12-10T01:50:49;0.70;99.90
14049;DHT22;7099;53.922;10.728;2022-12-10T01:54:54;0.70;99.90
14049;DHT22;7099;53.922;10.728;2022-12-10T01:58:59;0.70;99.90
14049;DHT22;7099;53.922;10.728;2022-12-10T02:03:10;0.70;99.90
14049;DHT22;7099;53.922;10.728;2022-12-10T02:11:46;0.70;99.90
14049;DHT22;7099;53.922;10.728;2022-12-10T02:20:10;0.80;99.90
14049;DHT22;7099;53.922;10.728;2022-12-10T02:24:27;0.70;99.90
14049;DHT22;7099;53.922;10.728;2022-12-10T02:28:51;0.80;99.90
14049;DHT22;7099;53.922;10.728;2022-12-10T02:32:59;0.80;99.90
14049;DHT22;7099;53.922;10.728;2022-12-10T02:37:10;0.80;99.90
14049;DHT22;7099;53.922;10.728;2022-12-10T02:41:28;0.80;99.90
14049;DHT22;7099;53.922;10.728;2022-12-10T02:45:35;0.80;99.90
14049;DHT22;7099;53.922;10.728;2022-12-10T02:49:41;0.80;99.90
14049;DHT22;7099;53.922;10.728;2022-12-10T02:53:59;0.70;99.90
14049;DHT22;7099;53.922;10.728;2022-12-10T03:08:03;0.80;99.90
14049;DHT22;7099;53.922;10.728;2022-12-10T03:12:25;0.80;99.90
14049;DHT22;7099;53.922;10.728;2022-12-10T03:16:47;0.80;99.90
14049;DHT22;7099;53.922;10.728;2022-12-10T03:20:57;0.80;99.90
14049;DHT22;7099;53.922;10.728;2022-12-10T03:25:07;0.80;99.90
14049;DHT22;7099;53.922;10.728;2022-12-10T03:29:17;0.70;99.90
14049;DHT22;7099;53.922;10.728;2022-12-10T03:33:26;0.70;99.90
14049;DHT22;7099;53.922;10.728;2022-12-10T03:37:31;0.70;99.90
14049;DHT22;7099;53.922;10.728;2022-12-10T03:41:36;0.70;99.90
14049;DHT22;7099;53.922;10.728;2022-12-10T03:45:41;0.80;99.90
14049;DHT22;7099;53.922;10.728;2022-12-10T03:49:46;0.80;99.90
14049;DHT22;7099;53.922;10.728;2022-12-10T03:53:51;0.80;99.90
14049;DHT22;7099;53.922;10.728;2022-12-10T03:57:56;0.80;99.90
14049;DHT22;7099;53.922;10.728;2022-12-10T04:02:01;0.80;99.90
14049;DHT22;7099;53.922;10.728;2022-12-10T04:06:10;0.70;99.90
14049;DHT22;7099;53.922;10.728;2022-12-10T04:10:20;0.70;99.90
14049;DHT22;7099;53.922;10.728;2022-12-10T04:14:26;0.70;99.90
14049;DHT22;7099;53.922;10.728;2022-12-10T04:18:49;0.70;99.90
14049;DHT22;7099;53.922;10.728;2022-12-10T04:22:54;0.70;99.90
14049;DHT22;7099;53.922;10.728;2022-12-10T04:27:26;0.70;99.90
14049;DHT22;7099;53.922;10.728;2022-12-10T04:31:38;0.70;99.90
14049;DHT22;7099;53.922;10.728;2022-12-10T04:35:42;0.70;99.90
14049;DHT22;7099;53.922;10.728;2022-12-10T04:39:49;0.70;99.90
14049;DHT22;7099;53.922;10.728;2022-12-10T04:43:55;0.70;99.90
14049;DHT22;7099;53.922;10.728;2022-12-10T04:48:00;0.70;99.90
14049;DHT22;7099;53.922;10.728;2022-12-10T04:52:05;0.70;99.90
14049;DHT22;7099;53.922;10.728;2022-12-10T04:56:11;0.70;99.90
14049;DHT22;7099;53.922;10.728;2022-12-10T05:00:16;0.70;99.90
14049;DHT22;7099;53.922;10.728;2022-12-10T05:04:21;0.70;99.90
14049;DHT22;7099;53.922;10.728;2022-12-10T05:08:26;0.60;99.90
14049;DHT22;7099;53.922;10.728;2022-12-10T05:12:31;0.60;99.90
14049;DHT22;7099;53.922;10.728;2022-12-10T05:16:36;0.60;99.90
14049;DHT22;7099;53.922;10.728;2022-12-10T05:20:41;0.70;99.90
14049;DHT22;7099;53.922;10.728;2022-12-10T05:24:46;0.70;99.90
14049;DHT22;7099;53.922;10.728;2022-12-10T05:28:53;0.60;99.90
14049;DHT22;7099;53.922;10.728;2022-12-10T05:32:59;0.60;99.90
14049;DHT22;7099;53.922;10.728;2022-12-10T05:37:04;0.60;99.90
14049;DHT22;7099;53.922;10.728;2022-12-10T05:41:13;0.60;99.90
14049;DHT22;7099;53.922;10.728;2022-12-10T05:45:22;0.60;99.90
14049;DHT22;7099;53.922;10.728;2022-12-10T05:49:27;0.50;99.90
14049;DHT22;7099;53.922;10.728;2022-12-10T05:53:32;0.50;99.90
14049;DHT22;7099;53.922;10.728;2022-12-10T05:57:37;0.50;99.90
14049;DHT22;7099;53.922;10.728;2022-12-10T06:01:42;0.50;99.90
14049;DHT22;7099;53.922;10.728;2022-12-10T06:05:47;0.50;99.90
14049;DHT22;7099;53.922;10.728;2022-12-10T06:09:52;0.50;99.90
14049;DHT22;7099;53.922;10.728;2022-12-10T06:13:58;0.50;99.90
14049;DHT22;7099;53.922;10.728;2022-12-10T06:18:03;0.40;99.90
14049;DHT22;7099;53.922;10.728;2022-12-10T06:22:08;0.40;99.90
14049;DHT22;7099;53.922;10.728;2022-12-10T06:26:16;0.40;99.90
14049;DHT22;7099;53.922;10.728;2022-12-10T06:30:22;0.40;99.90
14049;DHT22;7099;53.922;10.728;2022-12-10T06:34:27;0.40;99.90
14049;DHT22;7099;53.922;10.728;2022-12-10T06:38:33;0.40;99.90
14049;DHT22;7099;53.922;10.728;2022-12-10T06:42:39;0.40;99.90
14049;DHT22;7099;53.922;10.728;2022-12-10T06:46:44;0.30;99.90
14049;DHT22;7099;53.922;10.728;2022-12-10T06:50:49;0.40;99.90
14049;DHT22;7099;53.922;10.728;2022-12-10T06:54:54;0.40;99.90
14049;DHT22;7099;53.922;10.728;2022-12-10T06:58:59;0.30;99.90
14049;DHT22;7099;53.922;10.728;2022-12-10T07:03:09;0.40;99.90
14049;DHT22;7099;53.922;10.728;2022-12-10T07:07:14;0.40;99.90
14049;DHT22;7099;53.922;10.728;2022-12-10T07:11:21;0.40;99.90
14049;DHT22;7099;53.922;10.728;2022-12-10T07:15:27;0.40;99.90
14049;DHT22;7099;53.922;10.728;2022-12-10T07:19:32;0.40;99.90
14049;DHT22;7099;53.922;10.728;2022-12-10T07:23:37;0.40;99.90
14049;DHT22;7099;53.922;10.728;2022-12-10T07:27:42;0.40;99.90
14049;DHT22;7099;53.922;10.728;2022-12-10T07:31:48;0.40;99.90
14049;DHT22;7099;53.922;10.728;2022-12-10T07:35:53;0.40;99.90
14049;DHT22;7099;53.922;10.728;2022-12-10T07:39:58;0.40;99.90
14049;DHT22;7099;53.922;10.728;2022-12-10T07:44:04;0.40;99.90
14049;DHT22;7099;53.922;10.728;2022-12-10T07:48:11;0.40;99.90
14049;DHT22;7099;53.922;10.728;2022-12-10T07:52:16;0.40;99.90
14049;DHT22;7099;53.922;10.728;2022-12-10T07:56:22;0.40;99.90
14049;DHT22;7099;53.922;10.728;2022-12-10T08:00:27;0.40;99.90
14049;DHT22;7099;53.922;10.728;2022-12-10T08:04:32;0.40;99.90
14049;DHT22;7099;53.922;10.728;2022-12-10T08:08:37;0.40;99.90
14049;DHT22;7099;53.922;10.728;2022-12-10T08:12:42;0.40;99.90
14049;DHT22;7099;53.922;10.728;2022-12-10T08:16:47;0.30;99.90
14049;DHT22;7099;53.922;10.728;2022-12-10T08:20:52;0.40;99.90
14049;DHT22;7099;53.922;10.728;2022-12-10T08:24:57;0.40;99.90
14049;DHT22;7099;53.922;10.728;2022-12-10T08:29:03;0.40;99.90
14049;DHT22;7099;53.922;10.728;2022-12-10T08:33:08;0.40;99.90
14049;DHT22;7099;53.922;10.728;2022-12-10T08:37:12;0.40;99.90
14049;DHT22;7099;53.922;10.728;2022-12-10T08:41:20;0.40;99.90
14049;DHT22;7099;53.922;10.728;2022-12-10T08:45:26;0.40;99.90
14049;DHT22;7099;53.922;10.728;2022-12-10T08:49:31;0.50;99.90
14049;DHT22;7099;53.922;10.728;2022-12-10T08:53:36;0.50;99.90
14049;DHT22;7099;53.922;10.728;2022-12-10T08:57:41;0.50;99.90
14049;DHT22;7099;53.922;10.728;2022-12-10T09:01:46;0.50;99.90
14049;DHT22;7099;53.922;10.728;2022-12-10T09:05:54;0.50;99.90
14049;DHT22;7099;53.922;10.728;2022-12-10T09:10:00;0.50;99.90
14049;DHT22;7099;53.922;10.728;2022-12-10T09:14:05;0.50;99.90
14049;DHT22;7099;53.922;10.728;2022-12-10T09:18:10;0.50;99.90
14049;DHT22;7099;53.922;10.728;2022-12-10T09:22:15;0.50;99.90
14049;DHT22;7099;53.922;10.728;2022-12-10T09:26:20;0.50;99.90
14049;DHT22;7099;53.922;10.728;2022-12-10T09:30:25;0.50;99.90
14049;DHT22;7099;53.922;10.728;2022-12-10T09:34:30;0.50;99.90
14049;DHT22;7099;53.922;10.728;2022-12-10T09:38:37;0.50;99.90
14049;DHT22;7099;53.922;10.728;2022-12-10T09:47:01;0.50;99.90
14049;DHT22;7099;53.922;10.728;2022-12-10T09:51:31;0.50;99.90
14049;DHT22;7099;53.922;10.728;2022-12-10T09:55:44;0.60;99.90
14049;DHT22;7099;53.922;10.728;2022-12-10T09:59:51;0.60;99.90
14049;DHT22;7099;53.922;10.728;2022-12-10T10:03:57;0.50;99.90
14049;DHT22;7099;53.922;10.728;2022-12-10T10:08:11;0.60;99.90
14049;DHT22;7099;53.922;10.728;2022-12-10T10:12:19;0.60;99.90
14049;DHT22;7099;53.922;10.728;2022-12-10T10:20:54;0.60;99.90
14049;DHT22;7099;53.922;10.728;2022-12-10T10:24:59;0.60;99.90
14049;DHT22;7099;53.922;10.728;2022-12-10T10:29:09;0.60;99.90
14049;DHT22;7099;53.922;10.728;2022-12-10T10:33:16;0.50;99.90
14049;DHT22;7099;53.922;10.728;2022-12-10T10:37:29;0.50;99.90
14049;DHT22;7099;53.922;10.728;2022-12-10T10:41:49;0.60;99.90
14049;DHT22;7099;53.922;10.728;2022-12-10T10:50:50;0.60;99.90
14049;DHT22;7099;53.922;10.728;2022-12-10T10:55:00;0.60;99.90
14049;DHT22;7099;53.922;10.728;2022-12-10T10:59:07;0.60;99.90
14049;DHT22;7099;53.922;10.728;2022-12-10T11:03:22;0.60;99.90
14049;DHT22;7099;53.922;10.728;2022-12-10T11:11:42;0.60;99.90
14049;DHT22;7099;53.922;10.728;2022-12-10T11:15:55;0.60;99.90
14049;DHT22;7099;53.922;10.728;2022-12-10T11:20:19;0.60;99.90
14049;DHT22;7099;53.922;10.728;2022-12-10T11:24:25;0.70;99.90
14049;DHT22;7099;53.922;10.728;2022-12-10T11:38:50;0.70;99.90
14049;DHT22;7099;53.922;10.728;2022-12-10T11:43:27;0.60;99.90
14049;DHT22;7099;53.922;10.728;2022-12-10T12:01:41;0.60;99.90
14049;DHT22;7099;53.922;10.728;2022-12-10T12:15:19;0.60;99.90
14049;DHT22;7099;53.922;10.728;2022-12-10T12:19:40;0.50;99.90
14049;DHT22;7099;53.922;10.728;2022-12-10T12:28:21;0.60;99.90
14049;DHT22;7099;53.922;10.728;2022-12-10T12:37:09;0.60;99.90
14049;DHT22;7099;53.922;10.728;2022-12-10T12:45:41;0.50;99.90
14049;DHT22;7099;53.922;10.728;2022-12-10T12:49:49;0.50;99.90
14049;DHT22;7099;53.922;10.728;2022-12-10T12:53:54;0.50;99.90
14049;DHT22;7099;53.922;10.728;2022-12-10T12:58:33;0.50;99.90
14049;DHT22;7099;53.922;10.728;2022-12-10T13:11:37;0.60;99.90
14049;DHT22;7099;53.922;10.728;2022-12-10T13:15:43;0.50;99.90
14049;DHT22;7099;53.922;10.728;2022-12-10T13:19:49;0.50;99.90
14049;DHT22;7099;53.922;10.728;2022-12-10T13:24:11;0.50;99.90
14049;DHT22;7099;53.922;10.728;2022-12-10T13:41:17;0.50;99.90
14049;DHT22;7099;53.922;10.728;2022-12-10T13:45:41;0.50;99.90
14049;DHT22;7099;53.922;10.728;2022-12-10T13:50:06;0.50;99.90
14049;DHT22;7099;53.922;10.728;2022-12-10T14:07:54;0.60;99.90
14049;DHT22;7099;53.922;10.728;2022-12-10T14:12:24;0.60;99.90
14049;DHT22;7099;53.922;10.728;2022-12-10T14:16:32;0.60;99.90
14049;DHT22;7099;53.922;10.728;2022-12-10T14:20:43;0.50;99.90
14049;DHT22;7099;53.922;10.728;2022-12-10T14:24:50;0.50;99.90
14049;DHT22;7099;53.922;10.728;2022-12-10T14:29:19;0.50;99.90
14049;DHT22;7099;53.922;10.728;2022-12-10T14:33:32;0.50;99.90
14049;DHT22;7099;53.922;10.728;2022-12-10T14:37:41;0.50;99.90
14049;DHT22;7099;53.922;10.728;2022-12-10T14:41:50;0.50;99.90
14049;DHT22;7099;53.922;10.728;2022-12-10T14:45:58;0.50;99.90
14049;DHT22;7099;53.922;10.728;2022-12-10T14:50:12;0.50;99.90
14049;DHT22;7099;53.922;10.728;2022-12-10T14:54:33;0.40;99.90
14049;DHT22;7099;53.922;10.728;2022-12-10T14:58:50;0.40;99.90
14049;DHT22;7099;53.922;10.728;2022-12-10T15:03:07;0.40;99.90
14049;DHT22;7099;53.922;10.728;2022-12-10T15:07:16;0.40;99.90
14049;DHT22;7099;53.922;10.728;2022-12-10T15:11:25;0.40;99.90
14049;DHT22;7099;53.922;10.728;2022-12-10T15:15:35;0.40;99.90
14049;DHT22;7099;53.922;10.728;2022-12-10T15:19:41;0.40;99.90
14049;DHT22;7099;53.922;10.728;2022-12-10T15:23:47;0.40;99.90
14049;DHT22;7099;53.922;10.728;2022-12-10T15:27:57;0.40;99.90
14049;DHT22;7099;53.922;10.728;2022-12-10T15:32:19;0.40;99.90
14049;DHT22;7099;53.922;10.728;2022-12-10T15:36:40;0.40;99.90
14049;DHT22;7099;53.922;10.728;2022-12-10T15:41:00;0.40;99.90
14049;DHT22;7099;53.922;10.728;2022-12-10T15:45:42;0.40;99.90
14049;DHT22;7099;53.922;10.728;2022-12-10T15:49:48;0.40;99.90
14049;DHT22;7099;53.922;10.728;2022-12-10T15:53:56;0.40;99.90
14049;DHT22;7099;53.922;10.728;2022-12-10T15:58:01;0.30;99.90
14049;DHT22;7099;53.922;10.728;2022-12-10T16:02:39;0.40;99.90
14049;DHT22;7099;53.922;10.728;2022-12-10T16:06:55;0.40;99.90
14049;DHT22;7099;53.922;10.728;2022-12-10T16:11:16;0.30;99.90
14049;DHT22;7099;53.922;10.728;2022-12-10T16:15:24;0.30;99.90
14049;DHT22;7099;53.922;10.728;2022-12-10T16:19:29;0.30;99.90
14049;DHT22;7099;53.922;10.728;2022-12-10T16:23:34;0.30;99.90
14049;DHT22;7099;53.922;10.728;2022-12-10T16:27:40;0.30;99.90
14049;DHT22;7099;53.922;10.728;2022-12-10T16:31:47;0.30;99.90
14049;DHT22;7099;53.922;10.728;2022-12-10T16:35:53;0.30;99.90
14049;DHT22;7099;53.922;10.728;2022-12-10T16:39:59;0.20;99.90
14049;DHT22;7099;53.922;10.728;2022-12-10T16:44:04;0.30;99.90
14049;DHT22;7099;53.922;10.728;2022-12-10T16:48:09;0.30;99.90
14049;DHT22;7099;53.922;10.728;2022-12-10T16:52:16;0.20;99.90
14049;DHT22;7099;53.922;10.728;2022-12-10T16:56:21;0.20;99.90
14049;DHT22;7099;53.922;10.728;2022-12-10T17:00:26;0.20;99.90
14049;DHT22;7099;53.922;10.728;2022-12-10T17:04:32;0.20;99.90
14049;DHT22;7099;53.922;10.728;2022-12-10T17:08:37;0.20;99.90
14049;DHT22;7099;53.922;10.728;2022-12-10T17:12:42;0.20;99.90
14049;DHT22;7099;53.922;10.728;2022-12-10T17:16:48;0.20;99.90
14049;DHT22;7099;53.922;10.728;2022-12-10T17:20:53;0.20;99.90
14049;DHT22;7099;53.922;10.728;2022-12-10T17:24:58;0.20;99.90
14049;DHT22;7099;53.922;10.728;2022-12-10T17:33:21;0.20;99.90
14049;DHT22;7099;53.922;10.728;2022-12-10T17:37:28;0.20;99.90
14049;DHT22;7099;53.922;10.728;2022-12-10T17:41:35;0.20;99.90
14049;DHT22;7099;53.922;10.728;2022-12-10T17:45:43;0.10;99.90
14049;DHT22;7099;53.922;10.728;2022-12-10T17:49:49;0.10;99.90
14049;DHT22;7099;53.922;10.728;2022-12-10T17:53:54;0.20;99.90
14049;DHT22;7099;53.922;10.728;2022-12-10T17:57:59;0.20;99.90
14049;DHT22;7099;53.922;10.728;2022-12-10T18:02:05;0.20;99.90
14049;DHT22;7099;53.922;10.728;2022-12-10T18:06:27;0.20;99.90
14049;DHT22;7099;53.922;10.728;2022-12-10T18:10:33;0.20;99.90
14049;DHT22;7099;53.922;10.728;2022-12-10T18:14:38;0.10;99.90
14049;DHT22;7099;53.922;10.728;2022-12-10T18:18:44;0.10;99.90
14049;DHT22;7099;53.922;10.728;2022-12-10T18:22:50;0.10;99.90
14049;DHT22;7099;53.922;10.728;2022-12-10T18:26:56;0.20;99.90
14049;DHT22;7099;53.922;10.728;2022-12-10T18:31:01;0.20;99.90
14049;DHT22;7099;53.922;10.728;2022-12-10T18:35:07;0.20;99.90
14049;DHT22;7099;53.922;10.728;2022-12-10T18:39:21;0.10;99.90
14049;DHT22;7099;53.922;10.728;2022-12-10T18:43:27;0.10;99.90
14049;DHT22;7099;53.922;10.728;2022-12-10T18:47:32;0.20;99.90
14049;DHT22;7099;53.922;10.728;2022-12-10T18:51:37;0.20;99.90
14049;DHT22;7099;53.922;10.728;2022-12-10T18:55:42;0.20;99.90
14049;DHT22;7099;53.922;10.728;2022-12-10T18:59:47;0.20;99.90
14049;DHT22;7099;53.922;10.728;2022-12-10T19:03:55;0.20;99.90
14049;DHT22;7099;53.922;10.728;2022-12-10T19:08:00;0.20;99.90
14049;DHT22;7099;53.922;10.728;2022-12-10T19:12:06;0.20;99.90
14049;DHT22;7099;53.922;10.728;2022-12-10T19:16:13;0.20;99.90
14049;DHT22;7099;53.922;10.728;2022-12-10T19:20:23;0.20;99.90
14049;DHT22;7099;53.922;10.728;2022-12-10T19:24:29;0.20;99.90
14049;DHT22;7099;53.922;10.728;2022-12-10T19:28:34;0.20;99.90
14049;DHT22;7099;53.922;10.728;2022-12-10T19:32:39;0.20;99.90
14049;DHT22;7099;53.922;10.728;2022-12-10T19:36:45;0.20;99.90
14049;DHT22;7099;53.922;10.728;2022-12-10T19:40:50;0.20;99.90
14049;DHT22;7099;53.922;10.728;2022-12-10T19:44:56;0.20;99.90
14049;DHT22;7099;53.922;10.728;2022-12-10T19:49:03;0.10;99.90
14049;DHT22;7099;53.922;10.728;2022-12-10T19:53:08;0.10;99.90
14049;DHT22;7099;53.922;10.728;2022-12-10T19:57:13;0.20;99.90
14049;DHT22;7099;53.922;10.728;2022-12-10T20:01:19;0.10;99.90
14049;DHT22;7099;53.922;10.728;2022-12-10T20:05:24;0.10;99.90
14049;DHT22;7099;53.922;10.728;2022-12-10T20:09:29;0.10;99.90
14049;DHT22;7099;53.922;10.728;2022-12-10T20:13:34;0.10;99.90
14049;DHT22;7099;53.922;10.728;2022-12-10T20:17:39;0.10;99.90
14049;DHT22;7099;53.922;10.728;2022-12-10T20:21:44;0.10;99.90
14049;DHT22;7099;53.922;10.728;2022-12-10T20:25:50;0.10;99.90
14049;DHT22;7099;53.922;10.728;2022-12-10T20:29:55;0.10;99.90
14049;DHT22;7099;53.922;10.728;2022-12-10T20:34:00;0.10;99.90
14049;DHT22;7099;53.922;10.728;2022-12-10T20:38:04;0.10;99.90
14049;DHT22;7099;53.922;10.728;2022-12-10T20:42:09;0.10;99.90
14049;DHT22;7099;53.922;10.728;2022-12-10T20:46:27;0.10;99.90
14049;DHT22;7099;53.922;10.728;2022-12-10T20:50:35;0.10;99.90
14049;DHT22;7099;53.922;10.728;2022-12-10T20:54:40;0.10;99.90
14049;DHT22;7099;53.922;10.728;2022-12-10T20:58:45;0.10;99.90
14049;DHT22;7099;53.922;10.728;2022-12-10T21:02:50;0.10;99.90
14049;DHT22;7099;53.922;10.728;2022-12-10T21:06:55;0.10;99.90
14049;DHT22;7099;53.922;10.728;2022-12-10T21:11:00;0.10;99.90
14049;DHT22;7099;53.922;10.728;2022-12-10T21:15:06;0.10;99.90
14049;DHT22;7099;53.922;10.728;2022-12-10T21:19:24;0.10;99.90
14049;DHT22;7099;53.922;10.728;2022-12-10T21:23:29;0.10;99.90
14049;DHT22;7099;53.922;10.728;2022-12-10T21:27:34;0.10;99.90
14049;DHT22;7099;53.922;10.728;2022-12-10T21:31:39;0.10;99.90
14049;DHT22;7099;53.922;10.728;2022-12-10T21:35:45;0.00;99.90
14049;DHT22;7099;53.922;10.728;2022-12-10T21:39:51;0.00;99.90
14049;DHT22;7099;53.922;10.728;2022-12-10T21:43:56;0.00;99.90
14049;DHT22;7099;53.922;10.728;2022-12-10T21:48:01;0.00;99.90
14049;DHT22;7099;53.922;10.728;2022-12-10T21:52:06;0.00;99.90
14049;DHT22;7099;53.922;10.728;2022-12-10T21:56:12;0.00;99.90
14049;DHT22;7099;53.922;10.728;2022-12-10T22:00:17;0.00;99.90
14049;DHT22;7099;53.922;10.728;2022-12-10T22:04:23;0.00;99.90
14049;DHT22;7099;53.922;10.728;2022-12-10T22:08:28;0.00;99.90
14049;DHT22;7099;53.922;10.728;2022-12-10T22:12:33;0.00;99.90
14049;DHT22;7099;53.922;10.728;2022-12-10T22:16:39;0.00;99.90
14049;DHT22;7099;53.922;10.728;2022-12-10T22:20:59;0.00;99.90
14049;DHT22;7099;53.922;10.728;2022-12-10T22:25:04;0.00;99.90
14049;DHT22;7099;53.922;10.728;2022-12-10T22:29:10;0.00;99.90
14049;DHT22;7099;53.922;10.728;2022-12-10T22:33:15;-0.10;99.90
14049;DHT22;7099;53.922;10.728;2022-12-10T22:37:20;0.00;99.90
14049;DHT22;7099;53.922;10.728;2022-12-10T22:41:25;-0.10;99.90
14049;DHT22;7099;53.922;10.728;2022-12-10T22:45:30;-0.10;99.90
14049;DHT22;7099;53.922;10.728;2022-12-10T22:49:35;-0.10;99.90
14049;DHT22;7099;53.922;10.728;2022-12-10T22:53:42;-0.10;99.90
14049;DHT22;7099;53.922;10.728;2022-12-10T22:57:47;-0.10;99.90
14049;DHT22;7099;53.922;10.728;2022-12-10T23:01:52;-0.10;99.90
14049;DHT22;7099;53.922;10.728;2022-12-10T23:05:58;-0.10;99.90
14049;DHT22;7099;53.922;10.728;2022-12-10T23:10:05;-0.20;99.90
14049;DHT22;7099;53.922;10.728;2022-12-10T23:14:11;-0.20;99.90
14049;DHT22;7099;53.922;10.728;2022-12-10T23:18:16;-0.20;99.90
14049;DHT22;7099;53.922;10.728;2022-12-10T23:22:20;-0.20;99.90
14049;DHT22;7099;53.922;10.728;2022-12-10T23:26:25;-0.30;99.90
14049;DHT22;7099;53.922;10.728;2022-12-10T23:30:30;-0.30;99.90
14049;DHT22;7099;53.922;10.728;2022-12-10T23:34:36;-0.40;99.90
14049;DHT22;7099;53.922;10.728;2022-12-10T23:38:41;-0.40;99.90
14049;DHT22;7099;53.922;10.728;2022-12-10T23:42:46;-0.50;99.90
14049;DHT22;7099;53.922;10.728;2022-12-10T23:46:51;-0.50;99.90
14049;DHT22;7099;53.922;10.728;2022-12-10T23:50:57;-0.50;99.90
14049;DHT22;7099;53.922;10.728;2022-12-10T23:55:03;-0.50;99.90
14049;DHT22;7099;53.922;10.728;2022-12-10T23:59:08;-0.60;99.90
